sensor_id;sensor_type;location;lat;lon;timestamp;temperature;humidity
19908;DHT22;10116;53.112;7.356;2022-09-09T00:01:28;27.20;99.90
19908;DHT22;10116;53.112;7.356;2022-09-09T00:04:05;27.20;99.90
19908;DHT22;10116;53.112;7.356;2022-09-09T00:09:21;27.20;99.90
19908;DHT22;10116;53.112;7.356;2022-09-09T00:11:54;27.30;99.90
19908;DHT22;10116;53.112;7.356;2022-09-09T00:14:47;27.30;99.90
19908;DHT22;10116;53.112;7.356;2022-09-09T00:20:10;27.30;99.90
19908;DHT22;10116;53.112;7.356;2022-09-09T00:22:39;27.30;99.90
19908;DHT22;10116;53.112;7.356;2022-09-09T00:25:15;27.30;99.90
19908;DHT22;10116;53.112;7.356;2022-09-09T00:27:48;27.30;99.90
19908;DHT22;10116;53.112;7.356;2022-09-09T00:30:19;27.30;99.90
19908;DHT22;10116;53.112;7.356;2022-09-09T00:32:49;27.30;99.90
19908;DHT22;10116;53.112;7.356;2022-09-09T00:35:34;27.30;99.90
19908;DHT22;10116;53.112;7.356;2022-09-09T00:38:20;27.30;99.90
19908;DHT22;10116;53.112;7.356;2022-09-09T00:40:53;27.30;99.90
19908;DHT22;10116;53.112;7.356;2022-09-09T00:49:18;27.30;99.90
19908;DHT22;10116;53.112;7.356;2022-09-09T00:52:26;27.30;99.90
19908;DHT22;10116;53.112;7.356;2022-09-09T00:55:25;27.30;99.90
19908;DHT22;10116;53.112;7.356;2022-09-09T00:57:53;27.30;99.90
19908;DHT22;10116;53.112;7.356;2022-09-09T01:00:29;27.20;99.90
19908;DHT22;10116;53.112;7.356;2022-09-09T01:08:53;27.30;99.90
19908;DHT22;10116;53.112;7.356;2022-09-09T01:11:25;27.30;99.90
19908;DHT22;10116;53.112;7.356;2022-09-09T01:14:13;27.20;99.90
19908;DHT22;10116;53.112;7.356;2022-09-09T01:16:40;27.20;99.90
19908;DHT22;10116;53.112;7.356;2022-09-09T01:19:08;27.20;99.90
19908;DHT22;10116;53.112;7.356;2022-09-09T01:21:55;27.20;99.90
19908;DHT22;10116;53.112;7.356;2022-09-09T01:27:21;27.20;99.90
19908;DHT22;10116;53.112;7.356;2022-09-09T01:29:48;27.20;99.90
19908;DHT22;10116;53.112;7.356;2022-09-09T01:32:40;27.20;99.90
19908;DHT22;10116;53.112;7.356;2022-09-09T01:37:57;27.20;99.90
19908;DHT22;10116;53.112;7.356;2022-09-09T01:40:24;27.20;99.90
19908;DHT22;10116;53.112;7.356;2022-09-09T01:42:50;27.20;99.90
19908;DHT22;10116;53.112;7.356;2022-09-09T01:45:15;27.20;99.90
19908;DHT22;10116;53.112;7.356;2022-09-09T01:47:41;27.20;99.90
19908;DHT22;10116;53.112;7.356;2022-09-09T01:50:09;27.20;99.90
19908;DHT22;10116;53.112;7.356;2022-09-09T01:52:37;27.20;99.90
19908;DHT22;10116;53.112;7.356;2022-09-09T01:55:04;27.20;99.90
19908;DHT22;10116;53.112;7.356;2022-09-09T01:57:46;27.10;99.90
19908;DHT22;10116;53.112;7.356;2022-09-09T02:00:15;27.10;99.90
19908;DHT22;10116;53.112;7.356;2022-09-09T02:03:00;27.10;99.90
19908;DHT22;10116;53.112;7.356;2022-09-09T02:05:48;27.10;99.90
19908;DHT22;10116;53.112;7.356;2022-09-09T02:08:20;27.10;99.90
19908;DHT22;10116;53.112;7.356;2022-09-09T02:11:04;27.10;99.90
19908;DHT22;10116;53.112;7.356;2022-09-09T02:13:32;27.20;99.90
19908;DHT22;10116;53.112;7.356;2022-09-09T02:16:33;27.20;99.90
19908;DHT22;10116;53.112;7.356;2022-09-09T02:19:11;27.20;99.90
19908;DHT22;10116;53.112;7.356;2022-09-09T02:21:40;27.30;99.90
19908;DHT22;10116;53.112;7.356;2022-09-09T02:24:08;27.30;99.90
19908;DHT22;10116;53.112;7.356;2022-09-09T02:26:39;27.30;99.90
19908;DHT22;10116;53.112;7.356;2022-09-09T02:29:09;27.30;99.90
19908;DHT22;10116;53.112;7.356;2022-09-09T02:31:38;27.30;99.90
19908;DHT22;10116;53.112;7.356;2022-09-09T02:34:05;27.30;99.90
19908;DHT22;10116;53.112;7.356;2022-09-09T02:36:36;27.30;99.90
19908;DHT22;10116;53.112;7.356;2022-09-09T02:39:05;27.40;99.90
19908;DHT22;10116;53.112;7.356;2022-09-09T02:41:34;27.40;99.90
19908;DHT22;10116;53.112;7.356;2022-09-09T02:44:01;27.40;99.90
19908;DHT22;10116;53.112;7.356;2022-09-09T02:54:26;27.40;99.90
19908;DHT22;10116;53.112;7.356;2022-09-09T02:56:54;27.40;99.90
19908;DHT22;10116;53.112;7.356;2022-09-09T02:59:21;27.40;99.90
19908;DHT22;10116;53.112;7.356;2022-09-09T03:01:47;27.40;99.90
19908;DHT22;10116;53.112;7.356;2022-09-09T03:04:13;27.40;99.90
19908;DHT22;10116;53.112;7.356;2022-09-09T03:06:39;27.40;99.90
19908;DHT22;10116;53.112;7.356;2022-09-09T03:09:05;27.40;99.90
19908;DHT22;10116;53.112;7.356;2022-09-09T03:11:31;27.50;99.90
19908;DHT22;10116;53.112;7.356;2022-09-09T03:13:56;27.50;99.90
19908;DHT22;10116;53.112;7.356;2022-09-09T03:16:23;27.50;99.90
19908;DHT22;10116;53.112;7.356;2022-09-09T03:18:49;27.40;99.90
19908;DHT22;10116;53.112;7.356;2022-09-09T03:21:15;27.50;99.90
19908;DHT22;10116;53.112;7.356;2022-09-09T03:23:41;27.40;99.90
19908;DHT22;10116;53.112;7.356;2022-09-09T03:26:07;27.40;99.90
19908;DHT22;10116;53.112;7.356;2022-09-09T03:28:32;27.40;99.90
19908;DHT22;10116;53.112;7.356;2022-09-09T03:31:05;27.30;99.90
19908;DHT22;10116;53.112;7.356;2022-09-09T03:33:31;27.30;99.90
19908;DHT22;10116;53.112;7.356;2022-09-09T03:35:57;27.40;99.90
19908;DHT22;10116;53.112;7.356;2022-09-09T03:38:25;27.40;99.90
19908;DHT22;10116;53.112;7.356;2022-09-09T03:40:52;27.50;99.90
19908;DHT22;10116;53.112;7.356;2022-09-09T03:43:22;27.50;99.90
19908;DHT22;10116;53.112;7.356;2022-09-09T03:45:48;27.60;99.90
19908;DHT22;10116;53.112;7.356;2022-09-09T03:48:14;27.60;99.90
19908;DHT22;10116;53.112;7.356;2022-09-09T03:51:00;27.60;99.90
19908;DHT22;10116;53.112;7.356;2022-09-09T03:53:27;27.60;99.90
19908;DHT22;10116;53.112;7.356;2022-09-09T03:55:54;27.60;99.90
19908;DHT22;10116;53.112;7.356;2022-09-09T03:58:24;27.60;99.90
19908;DHT22;10116;53.112;7.356;2022-09-09T04:00:54;27.60;99.90
19908;DHT22;10116;53.112;7.356;2022-09-09T04:03:19;27.60;99.90
19908;DHT22;10116;53.112;7.356;2022-09-09T04:05:48;27.60;99.90
19908;DHT22;10116;53.112;7.356;2022-09-09T04:08:14;27.60;99.90
19908;DHT22;10116;53.112;7.356;2022-09-09T04:10:40;27.60;99.90
19908;DHT22;10116;53.112;7.356;2022-09-09T04:13:07;27.60;99.90
19908;DHT22;10116;53.112;7.356;2022-09-09T04:15:32;27.60;99.90
19908;DHT22;10116;53.112;7.356;2022-09-09T04:18:00;27.60;99.90
19908;DHT22;10116;53.112;7.356;2022-09-09T04:20:26;27.50;99.90
19908;DHT22;10116;53.112;7.356;2022-09-09T04:22:52;27.60;99.90
19908;DHT22;10116;53.112;7.356;2022-09-09T04:25:17;27.50;99.90
19908;DHT22;10116;53.112;7.356;2022-09-09T04:27:43;27.50;99.90
19908;DHT22;10116;53.112;7.356;2022-09-09T04:30:10;27.50;99.90
19908;DHT22;10116;53.112;7.356;2022-09-09T04:32:36;27.50;99.90
19908;DHT22;10116;53.112;7.356;2022-09-09T04:35:02;27.50;99.90
19908;DHT22;10116;53.112;7.356;2022-09-09T04:37:28;27.50;99.90
19908;DHT22;10116;53.112;7.356;2022-09-09T04:39:54;27.50;99.90
19908;DHT22;10116;53.112;7.356;2022-09-09T04:42:19;27.50;99.90
19908;DHT22;10116;53.112;7.356;2022-09-09T04:44:45;27.40;99.90
19908;DHT22;10116;53.112;7.356;2022-09-09T04:47:11;27.40;99.90
19908;DHT22;10116;53.112;7.356;2022-09-09T04:49:37;27.40;99.90
19908;DHT22;10116;53.112;7.356;2022-09-09T04:52:03;27.40;99.90
19908;DHT22;10116;53.112;7.356;2022-09-09T04:54:29;27.40;99.90
19908;DHT22;10116;53.112;7.356;2022-09-09T04:56:55;27.40;99.90
19908;DHT22;10116;53.112;7.356;2022-09-09T04:59:21;27.40;99.90
19908;DHT22;10116;53.112;7.356;2022-09-09T05:01:48;27.40;99.90
19908;DHT22;10116;53.112;7.356;2022-09-09T05:04:13;27.30;99.90
19908;DHT22;10116;53.112;7.356;2022-09-09T05:06:42;27.30;99.90
19908;DHT22;10116;53.112;7.356;2022-09-09T05:09:08;27.30;99.90
19908;DHT22;10116;53.112;7.356;2022-09-09T05:11:35;27.30;99.90
19908;DHT22;10116;53.112;7.356;2022-09-09T05:14:02;27.30;99.90
19908;DHT22;10116;53.112;7.356;2022-09-09T05:16:28;27.30;99.90
19908;DHT22;10116;53.112;7.356;2022-09-09T05:18:55;27.30;99.90
19908;DHT22;10116;53.112;7.356;2022-09-09T05:21:23;27.30;99.90
19908;DHT22;10116;53.112;7.356;2022-09-09T05:23:50;27.30;99.90
19908;DHT22;10116;53.112;7.356;2022-09-09T05:26:18;27.40;99.90
19908;DHT22;10116;53.112;7.356;2022-09-09T05:28:45;27.50;99.90
19908;DHT22;10116;53.112;7.356;2022-09-09T05:31:12;27.50;99.90
19908;DHT22;10116;53.112;7.356;2022-09-09T05:33:40;27.60;99.90
19908;DHT22;10116;53.112;7.356;2022-09-09T05:36:11;27.60;99.90
19908;DHT22;10116;53.112;7.356;2022-09-09T05:38:39;27.60;99.90
19908;DHT22;10116;53.112;7.356;2022-09-09T05:41:06;27.60;99.90
19908;DHT22;10116;53.112;7.356;2022-09-09T05:43:32;27.60;99.90
19908;DHT22;10116;53.112;7.356;2022-09-09T05:46:07;27.60;99.90
19908;DHT22;10116;53.112;7.356;2022-09-09T05:48:44;27.60;99.90
19908;DHT22;10116;53.112;7.356;2022-09-09T05:51:13;27.60;99.90
19908;DHT22;10116;53.112;7.356;2022-09-09T05:53:41;27.60;99.90
19908;DHT22;10116;53.112;7.356;2022-09-09T05:56:08;27.60;99.90
19908;DHT22;10116;53.112;7.356;2022-09-09T05:58:38;27.60;99.90
19908;DHT22;10116;53.112;7.356;2022-09-09T06:01:08;27.60;99.90
19908;DHT22;10116;53.112;7.356;2022-09-09T06:03:36;27.60;99.90
19908;DHT22;10116;53.112;7.356;2022-09-09T06:06:04;27.50;99.90
19908;DHT22;10116;53.112;7.356;2022-09-09T06:08:31;27.50;99.90
19908;DHT22;10116;53.112;7.356;2022-09-09T06:11:15;27.50;99.90
19908;DHT22;10116;53.112;7.356;2022-09-09T06:13:41;27.50;99.90
19908;DHT22;10116;53.112;7.356;2022-09-09T06:16:14;27.50;99.90
19908;DHT22;10116;53.112;7.356;2022-09-09T06:18:41;27.40;99.90
19908;DHT22;10116;53.112;7.356;2022-09-09T06:21:15;27.40;99.90
19908;DHT22;10116;53.112;7.356;2022-09-09T06:23:40;27.50;99.90
19908;DHT22;10116;53.112;7.356;2022-09-09T06:26:10;27.40;99.90
19908;DHT22;10116;53.112;7.356;2022-09-09T06:28:37;27.40;99.90
19908;DHT22;10116;53.112;7.356;2022-09-09T06:31:05;27.40;99.90
19908;DHT22;10116;53.112;7.356;2022-09-09T06:33:33;27.40;99.90
19908;DHT22;10116;53.112;7.356;2022-09-09T06:36:01;27.40;99.90
19908;DHT22;10116;53.112;7.356;2022-09-09T06:38:27;27.30;99.90
19908;DHT22;10116;53.112;7.356;2022-09-09T06:40:54;27.30;99.90
19908;DHT22;10116;53.112;7.356;2022-09-09T06:43:21;27.30;99.90
19908;DHT22;10116;53.112;7.356;2022-09-09T06:46:17;27.30;99.90
19908;DHT22;10116;53.112;7.356;2022-09-09T06:48:43;27.30;99.90
19908;DHT22;10116;53.112;7.356;2022-09-09T06:51:15;27.30;99.90
19908;DHT22;10116;53.112;7.356;2022-09-09T06:53:43;27.30;99.90
19908;DHT22;10116;53.112;7.356;2022-09-09T06:58:42;27.20;99.90
19908;DHT22;10116;53.112;7.356;2022-09-09T07:01:13;27.20;99.90
19908;DHT22;10116;53.112;7.356;2022-09-09T07:03:40;27.10;99.90
19908;DHT22;10116;53.112;7.356;2022-09-09T07:06:08;27.10;99.90
19908;DHT22;10116;53.112;7.356;2022-09-09T07:08:34;27.10;99.90
19908;DHT22;10116;53.112;7.356;2022-09-09T07:11:04;27.10;99.90
19908;DHT22;10116;53.112;7.356;2022-09-09T07:13:30;27.00;99.90
19908;DHT22;10116;53.112;7.356;2022-09-09T07:16:03;27.00;99.90
19908;DHT22;10116;53.112;7.356;2022-09-09T07:18:29;27.00;99.90
19908;DHT22;10116;53.112;7.356;2022-09-09T07:20:55;27.00;99.90
19908;DHT22;10116;53.112;7.356;2022-09-09T07:23:23;27.10;99.90
19908;DHT22;10116;53.112;7.356;2022-09-09T07:25:48;27.20;99.90
19908;DHT22;10116;53.112;7.356;2022-09-09T07:28:14;27.20;99.90
19908;DHT22;10116;53.112;7.356;2022-09-09T07:30:40;27.30;99.90
19908;DHT22;10116;53.112;7.356;2022-09-09T07:33:06;27.30;99.90
19908;DHT22;10116;53.112;7.356;2022-09-09T07:35:32;27.30;99.90
19908;DHT22;10116;53.112;7.356;2022-09-09T07:38:00;27.30;99.90
19908;DHT22;10116;53.112;7.356;2022-09-09T07:40:26;27.40;99.90
19908;DHT22;10116;53.112;7.356;2022-09-09T07:42:51;27.40;99.90
19908;DHT22;10116;53.112;7.356;2022-09-09T07:45:17;27.40;99.90
19908;DHT22;10116;53.112;7.356;2022-09-09T07:47:42;27.40;99.90
19908;DHT22;10116;53.112;7.356;2022-09-09T07:50:10;27.40;99.90
19908;DHT22;10116;53.112;7.356;2022-09-09T07:52:36;27.40;99.90
19908;DHT22;10116;53.112;7.356;2022-09-09T07:55:02;27.40;99.90
19908;DHT22;10116;53.112;7.356;2022-09-09T07:57:29;27.30;99.90
19908;DHT22;10116;53.112;7.356;2022-09-09T07:59:56;27.40;99.90
19908;DHT22;10116;53.112;7.356;2022-09-09T08:02:23;27.30;99.90
19908;DHT22;10116;53.112;7.356;2022-09-09T08:04:49;27.30;99.90
19908;DHT22;10116;53.112;7.356;2022-09-09T08:07:15;27.30;99.90
19908;DHT22;10116;53.112;7.356;2022-09-09T08:09:41;27.30;99.90
19908;DHT22;10116;53.112;7.356;2022-09-09T08:12:07;27.30;99.90
19908;DHT22;10116;53.112;7.356;2022-09-09T08:14:34;27.30;99.90
19908;DHT22;10116;53.112;7.356;2022-09-09T08:17:00;27.30;99.90
19908;DHT22;10116;53.112;7.356;2022-09-09T08:19:25;27.20;99.90
19908;DHT22;10116;53.112;7.356;2022-09-09T08:21:51;27.20;99.90
19908;DHT22;10116;53.112;7.356;2022-09-09T08:24:17;27.30;99.90
19908;DHT22;10116;53.112;7.356;2022-09-09T08:26:46;27.20;99.90
19908;DHT22;10116;53.112;7.356;2022-09-09T08:29:15;27.20;99.90
19908;DHT22;10116;53.112;7.356;2022-09-09T08:31:49;27.20;99.90
19908;DHT22;10116;53.112;7.356;2022-09-09T08:34:15;27.20;99.90
19908;DHT22;10116;53.112;7.356;2022-09-09T08:36:45;27.20;99.90
19908;DHT22;10116;53.112;7.356;2022-09-09T08:39:13;27.20;99.90
19908;DHT22;10116;53.112;7.356;2022-09-09T08:46:57;27.30;99.90
19908;DHT22;10116;53.112;7.356;2022-09-09T08:52:02;27.30;99.90
19908;DHT22;10116;53.112;7.356;2022-09-09T08:54:34;27.30;99.90
19908;DHT22;10116;53.112;7.356;2022-09-09T08:57:01;27.40;99.90
19908;DHT22;10116;53.112;7.356;2022-09-09T08:59:28;27.40;99.90
19908;DHT22;10116;53.112;7.356;2022-09-09T09:02:16;27.40;99.90
19908;DHT22;10116;53.112;7.356;2022-09-09T09:10:00;27.50;99.90
19908;DHT22;10116;53.112;7.356;2022-09-09T09:12:32;27.30;99.90
19908;DHT22;10116;53.112;7.356;2022-09-09T09:15:00;27.30;99.90
19908;DHT22;10116;53.112;7.356;2022-09-09T09:17:28;27.20;99.90
19908;DHT22;10116;53.112;7.356;2022-09-09T09:19:57;27.20;99.90
19908;DHT22;10116;53.112;7.356;2022-09-09T09:25:13;27.30;99.90
19908;DHT22;10116;53.112;7.356;2022-09-09T09:30:28;27.30;99.90
19908;DHT22;10116;53.112;7.356;2022-09-09T09:33:24;27.40;99.90
19908;DHT22;10116;53.112;7.356;2022-09-09T09:35:52;27.40;99.90
19908;DHT22;10116;53.112;7.356;2022-09-09T09:38:26;27.40;99.90
19908;DHT22;10116;53.112;7.356;2022-09-09T09:40:55;27.50;99.90
19908;DHT22;10116;53.112;7.356;2022-09-09T09:43:32;27.50;99.90
19908;DHT22;10116;53.112;7.356;2022-09-09T09:45:58;27.50;99.90
19908;DHT22;10116;53.112;7.356;2022-09-09T09:48:26;27.50;99.90
19908;DHT22;10116;53.112;7.356;2022-09-09T09:51:05;27.60;99.90
19908;DHT22;10116;53.112;7.356;2022-09-09T09:53:34;27.60;99.90
19908;DHT22;10116;53.112;7.356;2022-09-09T09:58:31;27.60;99.90
19908;DHT22;10116;53.112;7.356;2022-09-09T10:00:59;27.60;99.90
19908;DHT22;10116;53.112;7.356;2022-09-09T10:03:29;27.60;99.90
19908;DHT22;10116;53.112;7.356;2022-09-09T10:05:55;27.60;99.90
19908;DHT22;10116;53.112;7.356;2022-09-09T10:08:23;27.60;99.90
19908;DHT22;10116;53.112;7.356;2022-09-09T10:13:17;27.70;99.90
19908;DHT22;10116;53.112;7.356;2022-09-09T10:19:00;27.80;99.90
19908;DHT22;10116;53.112;7.356;2022-09-09T10:22:34;27.80;99.90
19908;DHT22;10116;53.112;7.356;2022-09-09T10:27:31;27.90;99.90
19908;DHT22;10116;53.112;7.356;2022-09-09T10:33:04;27.90;99.90
19908;DHT22;10116;53.112;7.356;2022-09-09T10:38:17;28.00;99.90
19908;DHT22;10116;53.112;7.356;2022-09-09T10:40:58;28.00;99.90
19908;DHT22;10116;53.112;7.356;2022-09-09T10:49:17;28.10;99.90
19908;DHT22;10116;53.112;7.356;2022-09-09T10:56:58;28.10;99.90
19908;DHT22;10116;53.112;7.356;2022-09-09T10:59:30;28.10;99.90
19908;DHT22;10116;53.112;7.356;2022-09-09T11:01:57;28.20;99.90
19908;DHT22;10116;53.112;7.356;2022-09-09T11:04:35;28.20;99.90
19908;DHT22;10116;53.112;7.356;2022-09-09T11:07:08;28.10;99.90
19908;DHT22;10116;53.112;7.356;2022-09-09T11:09:39;28.10;99.90
19908;DHT22;10116;53.112;7.356;2022-09-09T11:12:10;28.20;99.90
19908;DHT22;10116;53.112;7.356;2022-09-09T11:14:52;28.20;99.90
19908;DHT22;10116;53.112;7.356;2022-09-09T11:17:26;28.20;99.90
19908;DHT22;10116;53.112;7.356;2022-09-09T11:19:55;28.20;99.90
19908;DHT22;10116;53.112;7.356;2022-09-09T11:22:37;28.20;99.90
19908;DHT22;10116;53.112;7.356;2022-09-09T11:39:00;28.20;99.90
19908;DHT22;10116;53.112;7.356;2022-09-09T11:41:36;28.20;99.90
19908;DHT22;10116;53.112;7.356;2022-09-09T11:44:23;28.10;99.90
19908;DHT22;10116;53.112;7.356;2022-09-09T11:46:52;28.10;99.90
19908;DHT22;10116;53.112;7.356;2022-09-09T11:49:41;28.10;99.90
19908;DHT22;10116;53.112;7.356;2022-09-09T11:52:40;28.10;99.90
19908;DHT22;10116;53.112;7.356;2022-09-09T11:55:20;28.10;99.90
19908;DHT22;10116;53.112;7.356;2022-09-09T11:58:18;28.10;99.90
19908;DHT22;10116;53.112;7.356;2022-09-09T12:00:48;28.10;99.90
19908;DHT22;10116;53.112;7.356;2022-09-09T12:03:40;28.30;99.90
19908;DHT22;10116;53.112;7.356;2022-09-09T12:06:30;28.30;99.90
19908;DHT22;10116;53.112;7.356;2022-09-09T12:11:50;28.40;99.90
19908;DHT22;10116;53.112;7.356;2022-09-09T12:14:36;28.50;99.90
19908;DHT22;10116;53.112;7.356;2022-09-09T12:19:41;28.50;99.90
19908;DHT22;10116;53.112;7.356;2022-09-09T12:28:42;28.40;99.90
19908;DHT22;10116;53.112;7.356;2022-09-09T12:33:43;28.40;99.90
19908;DHT22;10116;53.112;7.356;2022-09-09T12:36:24;28.40;99.90
19908;DHT22;10116;53.112;7.356;2022-09-09T12:38:50;28.40;99.90
19908;DHT22;10116;53.112;7.356;2022-09-09T12:41:23;28.40;99.90
19908;DHT22;10116;53.112;7.356;2022-09-09T12:43:50;28.40;99.90
19908;DHT22;10116;53.112;7.356;2022-09-09T12:46:39;28.40;99.90
19908;DHT22;10116;53.112;7.356;2022-09-09T12:49:28;28.40;99.90
19908;DHT22;10116;53.112;7.356;2022-09-09T12:51:56;28.50;99.90
19908;DHT22;10116;53.112;7.356;2022-09-09T12:54:23;28.50;99.90
19908;DHT22;10116;53.112;7.356;2022-09-09T12:56:49;28.40;99.90
19908;DHT22;10116;53.112;7.356;2022-09-09T12:59:24;28.50;99.90
19908;DHT22;10116;53.112;7.356;2022-09-09T13:01:57;28.50;99.90
19908;DHT22;10116;53.112;7.356;2022-09-09T13:04:24;28.40;99.90
19908;DHT22;10116;53.112;7.356;2022-09-09T13:06:49;28.40;99.90
19908;DHT22;10116;53.112;7.356;2022-09-09T13:09:15;28.40;99.90
19908;DHT22;10116;53.112;7.356;2022-09-09T13:11:42;28.40;99.90
19908;DHT22;10116;53.112;7.356;2022-09-09T13:14:19;28.40;99.90
19908;DHT22;10116;53.112;7.356;2022-09-09T13:16:59;28.40;99.90
19908;DHT22;10116;53.112;7.356;2022-09-09T13:19:26;28.40;99.90
19908;DHT22;10116;53.112;7.356;2022-09-09T13:21:55;28.40;99.90
19908;DHT22;10116;53.112;7.356;2022-09-09T13:24:30;28.40;99.90
19908;DHT22;10116;53.112;7.356;2022-09-09T13:27:24;28.40;99.90
19908;DHT22;10116;53.112;7.356;2022-09-09T13:29:53;28.40;99.90
19908;DHT22;10116;53.112;7.356;2022-09-09T13:32:21;28.40;99.90
19908;DHT22;10116;53.112;7.356;2022-09-09T13:35:22;28.50;99.90
19908;DHT22;10116;53.112;7.356;2022-09-09T13:37:49;28.50;99.90
19908;DHT22;10116;53.112;7.356;2022-09-09T13:40:18;28.50;99.90
19908;DHT22;10116;53.112;7.356;2022-09-09T13:42:44;28.50;99.90
19908;DHT22;10116;53.112;7.356;2022-09-09T13:45:25;28.50;99.90
19908;DHT22;10116;53.112;7.356;2022-09-09T13:47:53;28.40;99.90
19908;DHT22;10116;53.112;7.356;2022-09-09T13:50:30;28.40;99.90
19908;DHT22;10116;53.112;7.356;2022-09-09T13:52:59;28.40;99.90
19908;DHT22;10116;53.112;7.356;2022-09-09T13:55:28;28.30;99.90
19908;DHT22;10116;53.112;7.356;2022-09-09T13:57:57;28.30;99.90
19908;DHT22;10116;53.112;7.356;2022-09-09T14:00:24;28.30;99.90
19908;DHT22;10116;53.112;7.356;2022-09-09T14:02:51;28.30;99.90
19908;DHT22;10116;53.112;7.356;2022-09-09T14:05:19;28.30;99.90
19908;DHT22;10116;53.112;7.356;2022-09-09T14:07:46;28.30;99.90
19908;DHT22;10116;53.112;7.356;2022-09-09T14:10:11;28.30;99.90
19908;DHT22;10116;53.112;7.356;2022-09-09T14:12:37;28.30;99.90
19908;DHT22;10116;53.112;7.356;2022-09-09T14:15:05;28.30;99.90
19908;DHT22;10116;53.112;7.356;2022-09-09T14:17:30;28.30;99.90
19908;DHT22;10116;53.112;7.356;2022-09-09T14:19:57;28.30;99.90
19908;DHT22;10116;53.112;7.356;2022-09-09T14:22:23;28.30;99.90
19908;DHT22;10116;53.112;7.356;2022-09-09T14:24:49;28.30;99.90
19908;DHT22;10116;53.112;7.356;2022-09-09T14:27:16;28.30;99.90
19908;DHT22;10116;53.112;7.356;2022-09-09T14:29:42;28.30;99.90
19908;DHT22;10116;53.112;7.356;2022-09-09T14:32:09;28.30;99.90
19908;DHT22;10116;53.112;7.356;2022-09-09T14:34:35;28.30;99.90
19908;DHT22;10116;53.112;7.356;2022-09-09T14:37:01;28.30;99.90
19908;DHT22;10116;53.112;7.356;2022-09-09T14:39:26;28.30;99.90
19908;DHT22;10116;53.112;7.356;2022-09-09T14:41:52;28.30;99.90
19908;DHT22;10116;53.112;7.356;2022-09-09T14:44:17;28.30;99.90
19908;DHT22;10116;53.112;7.356;2022-09-09T14:46:44;28.30;99.90
19908;DHT22;10116;53.112;7.356;2022-09-09T14:49:10;28.30;99.90
19908;DHT22;10116;53.112;7.356;2022-09-09T14:51:38;28.30;99.90
19908;DHT22;10116;53.112;7.356;2022-09-09T14:54:04;28.30;99.90
19908;DHT22;10116;53.112;7.356;2022-09-09T14:56:32;28.30;99.90
19908;DHT22;10116;53.112;7.356;2022-09-09T14:59:00;28.30;99.90
19908;DHT22;10116;53.112;7.356;2022-09-09T15:01:29;28.20;99.90
19908;DHT22;10116;53.112;7.356;2022-09-09T15:03:58;28.20;99.90
19908;DHT22;10116;53.112;7.356;2022-09-09T15:06:25;28.20;99.90
19908;DHT22;10116;53.112;7.356;2022-09-09T15:08:52;28.20;99.90
19908;DHT22;10116;53.112;7.356;2022-09-09T15:11:18;28.20;99.90
19908;DHT22;10116;53.112;7.356;2022-09-09T15:13:45;28.20;99.90
19908;DHT22;10116;53.112;7.356;2022-09-09T15:16:17;28.20;99.90
19908;DHT22;10116;53.112;7.356;2022-09-09T15:18:44;28.10;99.90
19908;DHT22;10116;53.112;7.356;2022-09-09T15:21:15;28.10;99.90
19908;DHT22;10116;53.112;7.356;2022-09-09T15:23:41;28.10;99.90
19908;DHT22;10116;53.112;7.356;2022-09-09T15:26:08;28.00;99.90
19908;DHT22;10116;53.112;7.356;2022-09-09T15:28:36;28.00;99.90
19908;DHT22;10116;53.112;7.356;2022-09-09T15:31:15;28.00;99.90
19908;DHT22;10116;53.112;7.356;2022-09-09T15:33:47;27.90;99.90
19908;DHT22;10116;53.112;7.356;2022-09-09T15:38:42;27.90;99.90
19908;DHT22;10116;53.112;7.356;2022-09-09T15:41:09;27.90;99.90
19908;DHT22;10116;53.112;7.356;2022-09-09T15:43:35;27.80;99.90
19908;DHT22;10116;53.112;7.356;2022-09-09T15:48:46;27.80;99.90
19908;DHT22;10116;53.112;7.356;2022-09-09T15:51:11;27.80;99.90
19908;DHT22;10116;53.112;7.356;2022-09-09T15:53:38;27.80;99.90
19908;DHT22;10116;53.112;7.356;2022-09-09T15:56:06;27.90;99.90
19908;DHT22;10116;53.112;7.356;2022-09-09T15:58:33;27.90;99.90
19908;DHT22;10116;53.112;7.356;2022-09-09T16:01:03;28.00;99.90
19908;DHT22;10116;53.112;7.356;2022-09-09T16:03:33;28.00;99.90
19908;DHT22;10116;53.112;7.356;2022-09-09T16:05:59;28.00;99.90
19908;DHT22;10116;53.112;7.356;2022-09-09T16:08:25;28.00;99.90
19908;DHT22;10116;53.112;7.356;2022-09-09T16:10:56;28.00;99.90
19908;DHT22;10116;53.112;7.356;2022-09-09T16:13:21;28.10;99.90
19908;DHT22;10116;53.112;7.356;2022-09-09T16:15:54;28.00;99.90
19908;DHT22;10116;53.112;7.356;2022-09-09T16:18:20;28.00;99.90
19908;DHT22;10116;53.112;7.356;2022-09-09T16:20:56;28.10;99.90
19908;DHT22;10116;53.112;7.356;2022-09-09T16:23:21;28.10;99.90
19908;DHT22;10116;53.112;7.356;2022-09-09T16:25:56;28.00;99.90
19908;DHT22;10116;53.112;7.356;2022-09-09T16:28:22;28.00;99.90
19908;DHT22;10116;53.112;7.356;2022-09-09T16:30:48;28.00;99.90
19908;DHT22;10116;53.112;7.356;2022-09-09T16:33:15;28.00;99.90
19908;DHT22;10116;53.112;7.356;2022-09-09T16:35:41;28.00;99.90
19908;DHT22;10116;53.112;7.356;2022-09-09T16:38:07;28.00;99.90
19908;DHT22;10116;53.112;7.356;2022-09-09T16:40:39;28.00;99.90
19908;DHT22;10116;53.112;7.356;2022-09-09T16:43:06;28.00;99.90
19908;DHT22;10116;53.112;7.356;2022-09-09T16:45:32;28.00;99.90
19908;DHT22;10116;53.112;7.356;2022-09-09T16:47:59;27.90;99.90
19908;DHT22;10116;53.112;7.356;2022-09-09T16:50:26;27.90;99.90
19908;DHT22;10116;53.112;7.356;2022-09-09T16:52:52;27.90;99.90
19908;DHT22;10116;53.112;7.356;2022-09-09T16:55:18;27.90;99.90
19908;DHT22;10116;53.112;7.356;2022-09-09T16:57:47;27.90;99.90
19908;DHT22;10116;53.112;7.356;2022-09-09T17:00:15;27.90;99.90
19908;DHT22;10116;53.112;7.356;2022-09-09T17:02:42;27.90;99.90
19908;DHT22;10116;53.112;7.356;2022-09-09T17:05:08;27.90;99.90
19908;DHT22;10116;53.112;7.356;2022-09-09T17:07:34;27.80;99.90
19908;DHT22;10116;53.112;7.356;2022-09-09T17:10:01;27.80;99.90
19908;DHT22;10116;53.112;7.356;2022-09-09T17:12:27;27.80;99.90
19908;DHT22;10116;53.112;7.356;2022-09-09T17:14:52;27.80;99.90
19908;DHT22;10116;53.112;7.356;2022-09-09T17:17:20;27.80;99.90
19908;DHT22;10116;53.112;7.356;2022-09-09T17:19:46;27.80;99.90
19908;DHT22;10116;53.112;7.356;2022-09-09T17:22:12;27.90;99.90
19908;DHT22;10116;53.112;7.356;2022-09-09T17:24:37;27.90;99.90
19908;DHT22;10116;53.112;7.356;2022-09-09T17:27:04;27.90;99.90
19908;DHT22;10116;53.112;7.356;2022-09-09T17:29:29;28.00;99.90
19908;DHT22;10116;53.112;7.356;2022-09-09T17:31:55;28.00;99.90
19908;DHT22;10116;53.112;7.356;2022-09-09T17:34:21;28.00;99.90
19908;DHT22;10116;53.112;7.356;2022-09-09T17:36:48;28.00;99.90
19908;DHT22;10116;53.112;7.356;2022-09-09T17:39:14;28.00;99.90
19908;DHT22;10116;53.112;7.356;2022-09-09T17:41:39;28.00;99.90